createdAt,value
2023-05-24T00:03:39.429Z,16.38
2023-05-24T00:08:41.565Z,16.32
2023-05-24T00:13:43.445Z,16.19
2023-05-24T00:18:47.032Z,16.10
2023-05-24T00:23:51.841Z,16.04
2023-05-24T00:28:53.558Z,15.95
2023-05-24T00:33:55.710Z,15.93
2023-05-24T00:38:57.460Z,15.92
2023-05-24T00:43:59.489Z,15.91
2023-05-24T00:49:01.920Z,15.87
2023-05-24T00:54:05.011Z,15.84
2023-05-24T00:59:06.988Z,15.80
2023-05-24T01:04:08.916Z,15.80
2023-05-24T01:09:23.123Z,15.81
2023-05-24T01:14:41.795Z,15.79
2023-05-24T01:19:51.183Z,15.79
2023-05-24T01:25:17.212Z,15.78
2023-05-24T01:30:19.131Z,15.80
2023-05-24T01:35:21.076Z,15.79
2023-05-24T01:40:23.737Z,15.83
2023-05-24T01:45:35.708Z,15.87
2023-05-24T01:50:45.747Z,15.85
2023-05-24T01:55:53.439Z,15.82
2023-05-24T02:00:56.251Z,15.82
2023-05-24T02:05:58.031Z,15.80
2023-05-24T02:11:00.125Z,15.77
2023-05-24T02:16:02.503Z,15.74
2023-05-24T02:21:04.225Z,15.76
2023-05-24T02:26:06.368Z,15.81
2023-05-24T02:31:08.653Z,15.82
2023-05-24T02:36:11.051Z,15.85
2023-05-24T02:41:17.831Z,15.86
2023-05-24T02:46:19.684Z,15.93
2023-05-24T02:51:21.496Z,15.98
2023-05-24T02:56:23.800Z,15.98
2023-05-24T03:01:25.689Z,15.96
2023-05-24T03:06:28.038Z,15.99
2023-05-24T03:11:29.775Z,15.94
2023-05-24T03:16:33.137Z,15.95
2023-05-24T03:21:34.926Z,15.99
2023-05-24T03:26:37.852Z,15.99
2023-05-24T03:31:40.289Z,15.91
2023-05-24T03:36:43.312Z,15.78
2023-05-24T03:41:45.194Z,15.65
2023-05-24T03:46:47.638Z,15.50
2023-05-24T03:51:49.431Z,15.31
2023-05-24T03:56:53.323Z,15.14
2023-05-24T04:01:55.482Z,15.03
2023-05-24T04:06:58.140Z,14.95
2023-05-24T04:11:59.846Z,14.86
2023-05-24T04:17:04.507Z,14.77
2023-05-24T04:22:06.557Z,14.67
2023-05-24T04:27:11.934Z,14.58
2023-05-24T04:32:15.370Z,14.49
2023-05-24T04:37:17.477Z,14.38
2023-05-24T04:42:20.915Z,14.29
2023-05-24T04:47:22.680Z,14.27
2023-05-24T04:52:24.562Z,14.27
2023-05-24T04:57:26.518Z,14.21
2023-05-24T05:02:28.385Z,14.16
2023-05-24T05:07:30.283Z,14.09
2023-05-24T05:12:32.035Z,14.00
2023-05-24T05:17:33.946Z,13.92
2023-05-24T05:22:35.876Z,13.87
2023-05-24T05:27:37.599Z,13.77
2023-05-24T05:32:40.214Z,13.71
2023-05-24T05:37:42.134Z,13.67
2023-05-24T05:42:43.880Z,13.66
2023-05-24T05:47:45.793Z,13.61
2023-05-24T05:52:47.566Z,13.57
2023-05-24T05:57:49.281Z,13.54
2023-05-24T06:02:51.565Z,13.50
2023-05-24T06:07:53.474Z,13.46
2023-05-24T06:12:55.681Z,13.37
2023-05-24T06:17:57.695Z,13.34
2023-05-24T06:23:00.139Z,13.35
2023-05-24T06:28:01.874Z,13.39
2023-05-24T06:33:04.318Z,13.43
2023-05-24T06:38:06.167Z,13.49
2023-05-24T06:43:07.932Z,13.50
2023-05-24T06:48:09.799Z,13.58
2023-05-24T06:53:11.750Z,13.65
2023-05-24T06:58:14.557Z,13.67
2023-05-24T07:03:16.563Z,13.65
2023-05-24T07:08:18.338Z,13.70
2023-05-24T07:13:20.044Z,13.79
2023-05-24T07:18:21.795Z,13.92
2023-05-24T07:23:23.623Z,13.95
2023-05-24T07:28:25.306Z,13.97
2023-05-24T07:33:27.197Z,14.05
2023-05-24T07:38:29.325Z,14.16
2023-05-24T07:43:31.119Z,14.27
2023-05-24T07:48:32.889Z,14.34
2023-05-24T07:53:34.822Z,14.45
2023-05-24T07:58:36.616Z,14.52
2023-05-24T08:03:39.501Z,14.50
2023-05-24T08:08:41.458Z,14.51
2023-05-24T08:13:44.362Z,14.74
2023-05-24T08:18:46.621Z,15.12
2023-05-24T08:23:48.296Z,15.40
2023-05-24T08:28:50.153Z,15.63
2023-05-24T08:33:52.835Z,15.67
2023-05-24T08:38:54.618Z,15.69
2023-05-24T08:44:01.397Z,15.74
2023-05-24T08:49:04.620Z,15.74
2023-05-24T08:54:07.584Z,15.72
2023-05-24T08:59:10.567Z,15.56
2023-05-24T09:04:13.409Z,15.43
2023-05-24T09:09:18.587Z,15.27
2023-05-24T09:14:20.443Z,15.13
2023-05-24T09:19:22.459Z,15.04
2023-05-24T09:24:24.358Z,15.16
2023-05-24T09:29:26.211Z,15.31
2023-05-24T09:34:27.900Z,15.39
2023-05-24T09:39:29.741Z,15.43
2023-05-24T09:44:32.253Z,15.51
2023-05-24T09:49:37.262Z,15.67
2023-05-24T09:54:40.184Z,15.88
2023-05-24T09:59:42.991Z,16.09
2023-05-24T10:04:45.288Z,16.03
2023-05-24T10:09:47.387Z,15.89
2023-05-24T10:14:51.098Z,15.87
2023-05-24T10:19:52.940Z,15.88
2023-05-24T10:24:59.968Z,15.98
2023-05-24T10:30:14.255Z,16.16
2023-05-24T10:35:18.278Z,16.33
2023-05-24T10:40:22.126Z,16.32
2023-05-24T10:45:36.568Z,16.30
2023-05-24T10:50:38.306Z,16.22
2023-05-24T10:55:59.325Z,16.30
2023-05-24T11:01:03.032Z,16.38
2023-05-24T11:06:05.292Z,16.56
2023-05-24T11:11:23.312Z,16.74
2023-05-24T11:16:37.536Z,16.91
2023-05-24T11:21:43.484Z,16.96
2023-05-24T11:26:46.327Z,16.86
2023-05-24T11:31:57.776Z,16.75
2023-05-24T11:37:01.929Z,16.73
2023-05-24T11:42:08.057Z,16.74
2023-05-24T11:47:09.825Z,16.79
2023-05-24T11:52:11.824Z,16.81
2023-05-24T11:57:14.111Z,16.83
2023-05-24T12:02:16.731Z,16.85
2023-05-24T12:07:18.721Z,16.90
2023-05-24T12:12:30.297Z,16.97
2023-05-24T12:17:36.286Z,17.10
2023-05-24T12:22:38.358Z,17.14
2023-05-24T12:27:47.703Z,17.16
2023-05-24T12:32:50.599Z,17.12
2023-05-24T12:38:00.148Z,17.13
2023-05-24T12:43:04.042Z,17.11
2023-05-24T12:48:06.216Z,17.13
2023-05-24T12:53:08.767Z,17.17
2023-05-24T12:58:14.216Z,17.14
2023-05-24T13:03:16.161Z,17.17
2023-05-24T13:08:18.180Z,17.27
2023-05-24T13:13:20.070Z,17.44
2023-05-24T13:18:21.770Z,17.55
2023-05-24T13:23:23.704Z,17.54
2023-05-24T13:28:26.361Z,17.61
2023-05-24T13:33:28.079Z,17.71
2023-05-24T13:38:29.998Z,17.75
2023-05-24T13:43:31.902Z,17.69
2023-05-24T13:48:34.041Z,17.55
2023-05-24T13:53:36.233Z,17.45
2023-05-24T13:58:37.835Z,17.49
2023-05-24T14:03:42.511Z,17.55
2023-05-24T14:08:44.478Z,17.55
2023-05-24T14:18:51.696Z,17.53
2023-05-24T14:23:53.647Z,17.39
2023-05-24T14:28:56.727Z,17.30
2023-05-24T14:33:58.859Z,17.19
2023-05-24T14:39:00.855Z,17.02
2023-05-24T14:44:02.886Z,16.89
2023-05-24T14:49:04.774Z,16.77
2023-05-24T14:54:06.813Z,16.60
2023-05-24T14:59:08.616Z,16.46
2023-05-24T15:04:10.342Z,16.39
2023-05-24T15:09:13.392Z,16.35
2023-05-24T15:14:15.189Z,16.30
2023-05-24T15:19:16.887Z,16.31
2023-05-24T15:24:18.683Z,16.32
2023-05-24T15:29:21.404Z,16.34
2023-05-24T15:34:23.811Z,16.34
2023-05-24T15:39:26.447Z,16.31
2023-05-24T15:44:28.143Z,16.26
2023-05-24T15:49:29.880Z,16.18
2023-05-24T15:54:32.249Z,16.07
2023-05-24T15:59:36.824Z,16.00
2023-05-24T16:04:39.314Z,15.95
2023-05-24T16:09:41.360Z,15.90
2023-05-24T16:14:43.154Z,15.85
2023-05-24T16:19:49.591Z,15.72
2023-05-24T16:24:51.712Z,15.63
2023-05-24T16:29:53.371Z,15.53
2023-05-24T16:34:57.203Z,15.42
2023-05-24T16:39:59.620Z,15.35
2023-05-24T16:45:01.717Z,15.33
2023-05-24T16:50:04.099Z,15.29
2023-05-24T16:55:06.630Z,15.29
2023-05-24T17:00:09.783Z,15.26
2023-05-24T17:05:11.785Z,15.19
2023-05-24T17:10:13.458Z,15.18
2023-05-24T17:15:15.254Z,15.17
2023-05-24T17:20:17.219Z,15.15
2023-05-24T17:25:18.969Z,15.08
2023-05-24T17:30:21.106Z,15.01
2023-05-24T17:35:23.283Z,14.94
2023-05-24T17:40:25.499Z,14.89
2023-05-24T17:45:27.302Z,14.83
2023-05-24T17:50:29.132Z,14.77
2023-05-24T17:55:31.184Z,14.72
2023-05-24T18:00:32.913Z,14.68
2023-05-24T18:05:34.690Z,14.65
2023-05-24T18:10:37.022Z,14.63
2023-05-24T18:15:38.801Z,14.63
2023-05-24T18:20:40.765Z,14.61
2023-05-24T18:25:44.911Z,14.56
2023-05-24T18:30:46.844Z,14.49
2023-05-24T18:35:48.561Z,14.42
2023-05-24T18:40:50.554Z,14.40
2023-05-24T18:45:52.256Z,14.39
2023-05-24T18:50:54.872Z,14.34
2023-05-24T18:55:56.568Z,14.29
2023-05-24T19:00:58.366Z,14.23
2023-05-24T19:06:00.306Z,14.19
2023-05-24T19:11:02.113Z,14.16
2023-05-24T19:16:03.904Z,14.15
2023-05-24T19:21:05.875Z,14.15
2023-05-24T19:26:08.039Z,14.16
2023-05-24T19:31:10.056Z,14.15
2023-05-24T19:36:11.802Z,14.10
2023-05-24T19:41:13.771Z,14.06
2023-05-24T19:46:15.544Z,14.03
2023-05-24T19:51:17.486Z,14.02
2023-05-24T19:56:20.783Z,14.02
2023-05-24T20:01:22.758Z,14.02
2023-05-24T20:06:24.549Z,13.99
2023-05-24T20:11:26.683Z,13.97
2023-05-24T20:16:29.531Z,13.96
2023-05-24T20:21:32.817Z,13.95
2023-05-24T20:26:35.089Z,13.95
2023-05-24T20:31:37.796Z,13.92
2023-05-24T20:36:40.850Z,13.89
2023-05-24T20:41:43.981Z,13.89
2023-05-24T20:46:45.638Z,13.87
2023-05-24T20:51:47.342Z,13.84
2023-05-24T20:56:49.160Z,13.87
2023-05-24T21:01:51.114Z,13.92
2023-05-24T21:06:55.123Z,13.88
2023-05-24T21:11:58.728Z,13.83
2023-05-24T21:17:00.608Z,13.79
2023-05-24T21:22:02.596Z,13.74
2023-05-24T21:27:04.924Z,13.70
2023-05-24T21:32:08.270Z,13.67
2023-05-24T21:37:10.117Z,13.63
2023-05-24T21:42:12.553Z,13.61
2023-05-24T21:47:15.619Z,13.61
2023-05-24T21:52:19.581Z,13.61
2023-05-24T21:57:21.507Z,13.61
2023-05-24T22:02:23.272Z,13.57
2023-05-24T22:07:25.197Z,13.55
2023-05-24T22:12:27.180Z,13.58
2023-05-24T22:17:29.492Z,13.56
2023-05-24T22:22:31.300Z,13.52
2023-05-24T22:27:35.956Z,13.51
2023-05-24T22:32:37.949Z,13.52
2023-05-24T22:37:39.735Z,13.52
2023-05-24T22:42:42.053Z,13.50
2023-05-24T22:47:43.929Z,13.45
2023-05-24T22:52:46.742Z,13.42
2023-05-24T22:57:48.742Z,13.43
2023-05-24T23:02:50.584Z,13.43
2023-05-24T23:07:52.846Z,13.41
2023-05-24T23:12:55.424Z,13.37
2023-05-24T23:17:58.270Z,13.35
2023-05-24T23:23:05.955Z,13.35
2023-05-24T23:28:07.783Z,13.36
2023-05-24T23:33:09.636Z,13.33
2023-05-24T23:38:13.695Z,13.32
2023-05-24T23:43:16.564Z,13.31
2023-05-24T23:48:21.817Z,13.33
2023-05-24T23:53:23.621Z,13.32
2023-05-24T23:58:25.704Z,13.29
